Time;durP1;ratioP1;P1;durP2;ratioP2;P2;SDS_P1;SDS_P2;PMS_P1;PMS_P2;Temp;Humidity;BMP_temperature;BMP_pressure;BME280_temperature;BME280_humidity;BME280_pressure;Samples;Min_cycle;Max_cycle;Signal;HPM_P1;HPM_P2
2023/10/02 00:03:05;;;;;;;0.10;0.10;;;18.10;99.90;;;;;;5005258;28;20068;-63
2023/10/02 00:05:05;;;;;;;0.88;0.88;;;18.10;99.90;;;;;;4997842;28;20046;-63
2023/10/02 00:07:35;;;;;;;1.30;1.08;;;18.10;99.90;;;;;;5006520;28;20379;-63
2023/10/02 00:10:02;;;;;;;2.53;1.73;;;18.10;99.90;;;;;;4998608;28;20050;-63
2023/10/02 00:12:31;;;;;;;6.75;1.48;;;18.10;99.90;;;;;;5003541;28;20046;-63
2023/10/02 00:15:12;;;;;;;2.08;0.80;;;18.10;99.90;;;;;;5008825;28;20053;-63
2023/10/02 00:17:43;;;;;;;2.72;1.00;;;18.00;99.90;;;;;;5006329;28;20535;-63
2023/10/02 00:20:21;;;;;;;0.00;0.00;;;18.00;99.90;;;;;;5002189;28;20720;-63
2023/10/02 00:22:46;;;;;;;19.33;0.82;;;18.00;99.90;;;;;;4999784;28;20053;-63
2023/10/02 00:25:16;;;;;;;12.95;1.27;;;18.00;99.90;;;;;;5003438;28;20038;-63
2023/10/02 00:27:50;;;;;;;1.27;1.20;;;17.90;99.90;;;;;;5001379;28;20045;-63
2023/10/02 00:30:20;;;;;;;0.57;0.57;;;17.90;99.90;;;;;;5008218;28;20062;-63
2023/10/02 00:32:47;;;;;;;2.88;0.50;;;17.80;99.90;;;;;;5002766;28;20410;-63
2023/10/02 00:35:14;;;;;;;0.75;0.75;;;17.80;99.90;;;;;;5008194;28;20045;-63
2023/10/02 00:37:44;;;;;;;2.80;2.28;;;17.70;99.90;;;;;;5008733;28;20080;-63
2023/10/02 00:40:22;;;;;;;1.23;1.15;;;17.70;99.90;;;;;;4998748;28;20046;-63
2023/10/02 00:42:58;;;;;;;0.82;0.82;;;17.70;99.90;;;;;;5006938;28;20045;-63
2023/10/02 00:45:38;;;;;;;0.80;0.63;;;17.70;99.90;;;;;;5002212;28;20767;-63
2023/10/02 00:50:50;;;;;;;1.83;1.45;;;17.60;99.90;;;;;;5002454;28;20640;-63
2023/10/02 00:53:37;;;;;;;4.53;1.33;;;17.60;99.90;;;;;;5009272;28;20493;-63
2023/10/02 00:56:20;;;;;;;0.32;0.32;;;17.60;99.90;;;;;;5009576;28;20144;-63
2023/10/02 00:59:00;;;;;;;9.38;1.92;;;17.60;99.90;;;;;;5003163;28;20045;-63
2023/10/02 01:01:27;;;;;;;1.95;0.60;;;17.60;99.90;;;;;;5006417;28;20045;-63
2023/10/02 01:04:09;;;;;;;1.27;1.17;;;17.70;99.90;;;;;;4998660;28;20042;-63
2023/10/02 01:06:54;;;;;;;1.02;0.82;;;17.70;99.90;;;;;;5010084;28;20497;-63
2023/10/02 01:09:22;;;;;;;0.65;0.63;;;17.70;99.90;;;;;;5004825;28;20374;-63
2023/10/02 01:11:48;;;;;;;0.47;0.25;;;17.60;99.90;;;;;;4998557;28;20038;-63
2023/10/02 01:14:38;;;;;;;1.40;1.23;;;17.60;99.90;;;;;;5003719;28;20119;-63
2023/10/02 01:17:01;;;;;;;6.70;1.48;;;17.60;99.90;;;;;;4997200;28;20761;-63
2023/10/02 01:19:52;;;;;;;6.13;1.55;;;17.60;99.90;;;;;;4997885;28;20105;-63
2023/10/02 01:22:26;;;;;;;0.25;0.25;;;17.60;99.90;;;;;;5002554;28;20044;-63
2023/10/02 01:25:14;;;;;;;0.43;0.40;;;17.60;99.90;;;;;;4998320;28;20033;-63
2023/10/02 01:27:48;;;;;;;1.20;1.10;;;17.60;99.90;;;;;;5005779;28;20050;-63
2023/10/02 01:30:15;;;;;;;4.38;2.38;;;17.60;99.90;;;;;;5001573;28;20128;-63
2023/10/02 01:35:48;;;;;;;3.83;1.83;;;17.50;99.90;;;;;;5003683;28;20490;-63
2023/10/02 01:38:30;;;;;;;0.30;0.30;;;17.60;99.90;;;;;;4999656;28;20121;-63
2023/10/02 01:41:03;;;;;;;0.20;0.20;;;17.50;99.90;;;;;;4999336;28;20041;-63
2023/10/02 01:43:32;;;;;;;;;;;17.50;99.90;;;;;;4998417;28;20100;-63
2023/10/02 01:46:00;;;;;;;0.52;0.52;;;17.50;99.90;;;;;;5002592;28;20339;-63
2023/10/02 01:48:36;;;;;;;0.73;0.73;;;17.50;99.90;;;;;;5000569;28;20370;-63
2023/10/02 01:51:25;;;;;;;0.65;0.65;;;17.40;99.90;;;;;;5007331;28;20371;-63
2023/10/02 01:53:57;;;;;;;0.40;0.40;;;17.40;99.90;;;;;;4995619;28;20054;-63
2023/10/02 01:56:29;;;;;;;0.88;0.88;;;17.40;99.90;;;;;;5009641;28;20041;-63
2023/10/02 01:59:09;;;;;;;0.43;0.43;;;17.40;99.90;;;;;;5001067;28;20096;-63
2023/10/02 02:01:55;;;;;;;0.73;0.73;;;17.40;99.90;;;;;;5002802;28;20042;-63
2023/10/02 02:04:32;;;;;;;0.47;0.45;;;17.40;99.90;;;;;;4999437;28;20375;-63
2023/10/02 02:07:00;;;;;;;4.75;0.68;;;17.40;99.90;;;;;;4997140;28;20130;-63
2023/10/02 02:09:33;;;;;;;1.40;1.30;;;17.40;99.90;;;;;;5001558;28;20169;-63
2023/10/02 02:14:50;;;;;;;0.47;0.47;;;17.40;99.90;;;;;;5007695;28;20044;-63
2023/10/02 02:17:23;;;;;;;1.20;0.28;;;17.40;99.90;;;;;;5008330;28;20042;-63
2023/10/02 02:19:49;;;;;;;7.18;1.35;;;17.40;99.90;;;;;;5006339;28;20042;-63
2023/10/02 02:22:17;;;;;;;2.85;1.65;;;17.40;99.90;;;;;;5013386;28;20041;-63
2023/10/02 02:24:44;;;;;;;0.40;0.40;;;17.40;99.90;;;;;;5005864;28;20046;-63
2023/10/02 02:27:10;;;;;;;1.65;1.00;;;17.40;99.90;;;;;;5000346;28;20046;-63
2023/10/02 02:29:36;;;;;;;1.65;1.55;;;17.30;99.90;;;;;;5003554;28;20069;-63
2023/10/02 02:32:02;;;;;;;1.25;1.08;;;17.30;99.90;;;;;;5011475;28;20054;-63
2023/10/02 02:34:28;;;;;;;0.73;0.73;;;17.30;99.90;;;;;;5004084;28;20045;-63
2023/10/02 02:36:54;;;;;;;0.95;0.88;;;17.30;99.90;;;;;;5027256;28;20045;-63
2023/10/02 02:39:22;;;;;;;2.08;1.65;;;17.30;99.90;;;;;;5008227;28;20155;-63
2023/10/02 02:44:40;;;;;;;0.40;0.40;;;17.30;99.90;;;;;;5009185;28;20495;-63
2023/10/02 02:47:08;;;;;;;0.80;0.80;;;17.30;99.90;;;;;;5005423;28;20054;-63
2023/10/02 02:49:48;;;;;;;1.33;1.23;;;17.30;99.90;;;;;;5007189;28;20042;-63
2023/10/02 02:52:16;;;;;;;4.93;1.83;;;17.30;99.90;;;;;;5003074;28;20050;-63
2023/10/02 02:54:44;;;;;;;0.22;0.22;;;17.20;99.90;;;;;;5008078;28;20444;-63
2023/10/02 02:57:12;;;;;;;0.82;0.82;;;17.30;99.90;;;;;;5008419;28;20046;-63
2023/10/02 02:59:38;;;;;;;0.20;0.20;;;17.20;99.90;;;;;;5001349;28;20069;-63
2023/10/02 03:02:20;;;;;;;0.25;0.25;;;17.30;99.90;;;;;;5000155;28;20137;-63
2023/10/02 03:04:47;;;;;;;1.23;0.95;;;17.20;99.90;;;;;;5003898;28;20041;-63
2023/10/02 03:07:29;;;;;;;0.75;0.75;;;17.20;99.90;;;;;;5007849;28;20038;-63
2023/10/02 03:09:56;;;;;;;0.75;0.63;;;17.30;99.90;;;;;;5000163;28;20085;-64
2023/10/02 03:12:23;;;;;;;0.47;0.47;;;17.30;99.90;;;;;;5008501;28;20130;-63
2023/10/02 03:14:51;;;;;;;0.90;0.90;;;17.20;99.90;;;;;;5003689;28;20042;-63
2023/10/02 03:17:28;;;;;;;0.25;0.25;;;17.30;99.90;;;;;;5003295;28;20497;-63
2023/10/02 03:19:55;;;;;;;3.42;0.80;;;17.30;99.90;;;;;;5007071;28;20501;-63
2023/10/02 03:22:24;;;;;;;7.22;2.42;;;17.30;99.90;;;;;;5006501;28;20441;-63
2023/10/02 03:24:54;;;;;;;1.85;1.10;;;17.30;99.90;;;;;;5012190;28;20054;-63
2023/10/02 03:27:21;;;;;;;0.40;0.40;;;17.30;99.90;;;;;;4998117;28;20057;-63
2023/10/02 03:29:49;;;;;;;1.00;0.95;;;17.30;99.90;;;;;;5001437;28;20513;-63
2023/10/02 03:32:15;;;;;;;0.03;0.03;;;17.30;99.90;;;;;;5005210;28;20845;-63
2023/10/02 03:34:41;;;;;;;0.47;0.47;;;17.30;99.90;;;;;;5003867;28;20117;-63
2023/10/02 03:39:52;;;;;;;0.20;0.20;;;17.30;99.90;;;;;;5002249;28;20085;-63
2023/10/02 03:42:25;;;;;;;0.95;0.85;;;17.30;99.90;;;;;;5005952;28;20045;-63
2023/10/02 03:44:56;;;;;;;1.15;1.13;;;17.30;99.90;;;;;;5001078;28;20237;-63
2023/10/02 03:47:35;;;;;;;0.17;0.17;;;17.30;99.90;;;;;;5008774;28;20038;-63
2023/10/02 03:50:02;;;;;;;2.38;1.50;;;17.30;99.90;;;;;;5001829;28;20484;-63
2023/10/02 03:52:29;;;;;;;3.25;1.30;;;17.30;99.90;;;;;;5008512;28;20038;-63
2023/10/02 03:54:55;;;;;;;0.40;0.40;;;17.30;99.90;;;;;;4997064;28;20046;-63
2023/10/02 03:57:37;;;;;;;1.58;1.48;;;17.30;99.90;;;;;;4997031;28;20042;-63
2023/10/02 04:00:18;;;;;;;0.47;0.43;;;17.30;99.90;;;;;;5005406;28;20088;-63
2023/10/02 04:02:48;;;;;;;2.83;1.55;;;17.30;99.90;;;;;;5005002;28;20069;-63
2023/10/02 04:05:30;;;;;;;1.95;0.68;;;17.30;99.90;;;;;;5001816;28;20045;-63
2023/10/02 04:08:14;;;;;;;3.45;1.75;;;17.20;99.90;;;;;;5010894;28;20030;-63
2023/10/02 04:10:56;;;;;;;1.58;0.80;;;17.20;99.90;;;;;;5001752;28;20046;-63
2023/10/02 04:13:25;;;;;;;0.30;0.30;;;17.20;99.90;;;;;;5007472;28;20058;-63
2023/10/02 04:15:53;;;;;;;12.30;1.45;;;17.30;99.90;;;;;;5001179;28;20083;-63
2023/10/02 04:21:12;;;;;;;0.32;0.32;;;17.30;99.90;;;;;;4996533;28;20101;-63
2023/10/02 04:23:45;;;;;;;9.65;1.38;;;17.30;99.90;;;;;;4999015;28;20053;-63
2023/10/02 04:26:20;;;;;;;;;;;17.30;99.90;;;;;;5005112;28;20069;-63
2023/10/02 04:28:54;;;;;;;1.10;1.00;;;17.30;99.90;;;;;;5000403;28;20004;-63
2023/10/02 04:31:34;;;;;;;2.42;2.08;;;17.20;99.90;;;;;;5006342;28;20588;-63
2023/10/02 04:36:44;;;;;;;1.95;1.02;;;17.20;99.90;;;;;;4996321;28;20691;-63
2023/10/02 04:44:44;;;;;;;3.22;1.38;;;17.20;99.90;;;;;;5007163;28;20125;-63
2023/10/02 04:47:18;;;;;;;20.00;0.77;;;17.10;99.90;;;;;;5003800;28;20062;-63
2023/10/02 04:55:42;;;;;;;2.75;1.63;;;16.90;99.90;;;;;;4997999;28;20050;-63
2023/10/02 04:58:19;;;;;;;2.55;1.75;;;16.90;99.90;;;;;;5005732;28;20086;-63
2023/10/02 05:03:28;;;;;;;5.57;2.47;;;16.80;99.90;;;;;;4998711;28;20050;-63
2023/10/02 05:05:55;;;;;;;3.08;1.25;;;16.70;99.90;;;;;;5002692;28;20571;-63
2023/10/02 05:08:33;;;;;;;0.70;0.70;;;16.80;99.90;;;;;;5007699;28;20121;-63
2023/10/02 05:11:06;;;;;;;1.50;0.60;;;16.80;99.90;;;;;;5000416;28;20547;-63
2023/10/02 05:16:33;;;;;;;0.52;0.52;;;16.80;99.90;;;;;;5000593;28;20047;-63
2023/10/02 05:18:59;;;;;;;0.82;0.82;;;16.80;99.90;;;;;;4998481;28;20057;-63
2023/10/02 05:21:38;;;;;;;2.65;2.42;;;16.80;99.90;;;;;;4999152;28;20401;-63
2023/10/02 05:24:12;;;;;;;0.50;0.50;;;16.90;99.90;;;;;;4999170;28;20485;-64
2023/10/02 05:26:41;;;;;;;1.98;0.63;;;16.80;99.90;;;;;;5001661;28;20050;-63
2023/10/02 05:29:17;;;;;;;0.57;0.55;;;16.80;99.90;;;;;;5005094;28;20521;-63
2023/10/02 05:31:47;;;;;;;0.52;0.52;;;16.80;99.90;;;;;;4997827;28;20050;-63
2023/10/02 05:34:23;;;;;;;3.20;1.58;;;16.80;99.90;;;;;;5000208;28;20421;-63
2023/10/02 05:37:23;;;;;;;1.35;1.00;;;16.80;99.90;;;;;;5006082;28;20041;-63
2023/10/02 05:39:39;;;;;;;0.30;0.30;;;16.80;99.90;;;;;;4998618;28;20042;-63
2023/10/02 05:42:13;;;;;;;1.85;0.38;;;16.80;99.90;;;;;;5006835;28;20049;-63
2023/10/02 05:44:41;;;;;;;0.80;0.80;;;16.80;99.90;;;;;;4997160;28;20077;-63
2023/10/02 05:47:07;;;;;;;0.50;0.50;;;16.80;99.90;;;;;;5003919;28;20052;-63
2023/10/02 05:49:47;;;;;;;0.82;0.82;;;16.80;99.90;;;;;;5000004;28;20042;-63
2023/10/02 05:52:14;;;;;;;0.70;0.70;;;16.70;99.90;;;;;;5005972;28;20490;-63
2023/10/02 05:54:47;;;;;;;1.63;1.08;;;16.70;99.90;;;;;;4998092;28;20066;-63
2023/10/02 05:57:16;;;;;;;0.45;0.45;;;16.70;99.90;;;;;;5007212;28;20049;-63
2023/10/02 05:59:48;;;;;;;0.35;0.35;;;16.70;99.90;;;;;;4996408;28;20096;-63
2023/10/02 06:02:19;;;;;;;1.00;0.98;;;16.70;99.90;;;;;;4995913;28;20058;-63
2023/10/02 06:04:48;;;;;;;1.55;1.45;;;16.70;99.90;;;;;;4998705;28;20050;-63
2023/10/02 06:07:40;;;;;;;6.68;2.60;;;16.70;99.90;;;;;;5007381;28;20392;-63
2023/10/02 06:10:08;;;;;;;0.73;0.73;;;16.70;99.90;;;;;;5005305;28;20049;-63
2023/10/02 06:12:42;;;;;;;0.35;0.35;;;16.70;99.90;;;;;;4999104;28;20049;-63
2023/10/02 06:15:58;;;;;;;1.15;0.75;;;16.70;99.90;;;;;;5003362;28;20485;-63
2023/10/02 06:17:58;;;;;;;1.92;1.83;;;16.70;99.90;;;;;;4987746;28;20084;-63
2023/10/02 06:20:25;;;;;;;0.25;0.25;;;16.70;99.90;;;;;;4989661;28;20145;-63
2023/10/02 06:23:03;;;;;;;0.75;0.75;;;16.70;99.90;;;;;;5000567;28;20046;-63
2023/10/02 06:25:29;;;;;;;0.77;0.77;;;16.70;99.90;;;;;;4999321;28;20143;-63
2023/10/02 06:28:19;;;;;;;0.85;0.75;;;16.80;99.90;;;;;;4998561;28;20065;-63
2023/10/02 06:30:43;;;;;;;2.80;0.63;;;16.70;99.90;;;;;;5001786;28;20042;-63
2023/10/02 06:33:10;;;;;;;0.60;0.60;;;16.80;99.90;;;;;;5007075;28;20096;-63
2023/10/02 06:35:45;;;;;;;0.65;0.43;;;16.80;99.90;;;;;;4999929;28;20398;-63
2023/10/02 06:38:16;;;;;;;1.75;0.68;;;16.80;99.90;;;;;;4994381;28;20050;-63
2023/10/02 06:40:56;;;;;;;0.85;0.85;;;16.80;99.90;;;;;;4994695;28;20049;-63
2023/10/02 06:43:29;;;;;;;0.28;0.28;;;16.80;99.90;;;;;;4998486;28;20049;-63
2023/10/02 06:46:09;;;;;;;1.25;0.98;;;16.80;99.90;;;;;;4993863;28;20130;-63
2023/10/02 06:48:39;;;;;;;2.63;0.90;;;16.80;99.90;;;;;;4996024;28;20525;-63
2023/10/02 06:51:07;;;;;;;0.50;0.50;;;16.80;99.90;;;;;;5001789;28;20049;-63
2023/10/02 06:53:33;;;;;;;3.13;1.48;;;16.80;99.90;;;;;;5007885;28;20054;-63
2023/10/02 06:56:01;;;;;;;2.83;1.25;;;16.90;99.90;;;;;;5007266;28;20049;-63
2023/10/02 06:58:29;;;;;;;0.50;0.50;;;16.90;99.90;;;;;;4999238;28;20120;-63
2023/10/02 07:00:55;;;;;;;0.30;0.30;;;16.90;99.90;;;;;;5005467;28;20129;-64
2023/10/02 07:03:21;;;;;;;0.63;0.63;;;17.00;99.90;;;;;;5005298;28;20045;-64
2023/10/02 07:05:48;;;;;;;0.93;0.93;;;17.00;99.90;;;;;;5005838;28;20046;-64
2023/10/02 07:08:26;;;;;;;1.02;1.02;;;17.00;99.90;;;;;;5005929;28;20482;-64
2023/10/02 07:10:53;;;;;;;3.22;2.53;;;17.10;99.90;;;;;;5012801;28;20125;-64
2023/10/02 07:13:20;;;;;;;0.68;0.68;;;17.10;99.90;;;;;;5001258;28;20042;-63
2023/10/02 07:15:47;;;;;;;0.10;0.10;;;17.20;99.90;;;;;;5006968;28;20045;-64
2023/10/02 07:18:14;;;;;;;0.95;0.95;;;17.30;99.90;;;;;;5006193;28;20053;-64
2023/10/02 07:20:43;;;;;;;3.55;0.75;;;17.30;99.90;;;;;;5006539;28;20037;-64
2023/10/02 07:23:19;;;;;;;0.88;0.88;;;17.30;99.90;;;;;;4998291;28;20132;-64
2023/10/02 07:25:50;;;;;;;0.50;0.50;;;17.40;99.90;;;;;;5006119;28;20050;-63
2023/10/02 07:28:20;;;;;;;0.35;0.35;;;17.40;99.90;;;;;;5008026;28;20044;-64
2023/10/02 07:30:46;;;;;;;4.53;1.85;;;17.50;99.90;;;;;;5002740;28;20046;-63
2023/10/02 07:33:13;;;;;;;6.38;2.05;;;17.60;99.90;;;;;;5006025;28;20484;-64
2023/10/02 07:35:39;;;;;;;0.45;0.45;;;17.60;99.90;;;;;;5001098;28;20363;-64
2023/10/02 07:38:08;;;;;;;0.28;0.28;;;17.70;99.90;;;;;;5003185;28;20037;-63
2023/10/02 07:40:48;;;;;;;0.43;0.43;;;17.70;99.90;;;;;;5009577;28;20037;-64
2023/10/02 07:43:21;;;;;;;0.50;0.50;;;17.70;99.90;;;;;;4994595;28;20042;-64
2023/10/02 07:46:14;;;;;;;0.03;0.03;;;17.80;99.90;;;;;;5008354;28;20076;-64
2023/10/02 07:48:41;;;;;;;0.00;0.00;;;17.80;99.90;;;;;;5006669;28;20511;-64
2023/10/02 07:51:10;;;;;;;0.22;0.22;;;17.90;99.90;;;;;;5003308;28;20488;-64
2023/10/02 07:53:40;;;;;;;0.50;0.50;;;17.90;99.90;;;;;;5003557;28;20073;-64
2023/10/02 07:56:11;;;;;;;0.17;0.17;;;17.90;99.90;;;;;;5007273;28;20077;-64
2023/10/02 07:58:37;;;;;;;0.00;0.00;;;18.00;99.90;;;;;;5010822;28;20053;-63
2023/10/02 08:01:11;;;;;;;1.75;1.58;;;18.00;99.90;;;;;;5001522;28;20391;-64
2023/10/02 08:03:44;;;;;;;1.45;0.88;;;18.10;99.90;;;;;;5019775;28;20061;-64
2023/10/02 08:06:21;;;;;;;0.50;0.50;;;18.10;99.90;;;;;;5004604;28;20041;-64
2023/10/02 08:11:47;;;;;;;0.70;0.70;;;18.20;99.90;;;;;;5000950;28;20525;-64
2023/10/02 08:17:00;;;;;;;1.83;1.70;;;18.30;99.90;;;;;;5010799;28;20037;-64
2023/10/02 08:19:26;;;;;;;1.73;1.63;;;18.40;99.90;;;;;;5011789;28;20401;-64
2023/10/02 08:21:53;;;;;;;1.75;1.25;;;18.40;99.90;;;;;;4999359;28;20046;-63
2023/10/02 08:24:19;;;;;;;1.92;1.08;;;18.40;99.90;;;;;;5004561;28;20050;-64
2023/10/02 08:26:45;;;;;;;1.20;1.10;;;18.40;99.90;;;;;;4998945;28;20042;-64
2023/10/02 08:29:14;;;;;;;1.52;1.00;;;18.40;99.90;;;;;;5001100;28;20497;-64
2023/10/02 08:31:49;;;;;;;1.25;1.17;;;18.40;99.90;;;;;;5001196;28;20051;-64
2023/10/02 08:34:20;;;;;;;1.40;0.68;;;18.40;99.90;;;;;;5003403;28;20498;-63
2023/10/02 08:37:04;;;;;;;0.30;0.30;;;18.40;99.90;;;;;;5010098;28;20470;-64
2023/10/02 08:39:31;;;;;;;0.95;0.95;;;18.50;99.90;;;;;;5007220;28;20048;-64
2023/10/02 08:41:59;;;;;;;2.80;2.60;;;18.50;99.90;;;;;;5003336;28;20420;-63
2023/10/02 08:44:25;;;;;;;0.80;0.77;;;18.50;99.90;;;;;;5000774;28;20057;-64
2023/10/02 08:46:50;;;;;;;1.70;0.88;;;18.60;99.90;;;;;;5009786;28;20050;-64
2023/10/02 08:49:18;;;;;;;0.52;0.52;;;18.60;99.90;;;;;;5007630;28;20046;-64
2023/10/02 08:51:51;;;;;;;2.72;1.60;;;18.70;99.90;;;;;;4992271;28;20070;-64
2023/10/02 08:54:18;;;;;;;3.00;1.77;;;18.70;99.90;;;;;;5000373;28;20512;-64
2023/10/02 08:56:44;;;;;;;2.92;2.53;;;18.80;99.90;;;;;;4994018;28;20053;-64
2023/10/02 08:59:26;;;;;;;1.20;1.13;;;18.80;99.90;;;;;;5006178;28;20046;-64
2023/10/02 09:02:13;;;;;;;23.75;1.75;;;18.80;99.90;;;;;;5005770;28;20125;-64
2023/10/02 09:04:52;;;;;;;0.57;0.57;;;18.80;99.90;;;;;;4998186;28;20088;-64
2023/10/02 09:07:44;;;;;;;0.25;0.13;;;18.90;99.90;;;;;;5003069;28;20050;-64
2023/10/02 09:10:33;;;;;;;0.85;0.55;;;18.80;99.90;;;;;;5007643;28;20065;-64
2023/10/02 09:13:13;;;;;;;0.20;0.20;;;18.90;99.90;;;;;;4995362;28;20398;-64
2023/10/02 09:15:44;;;;;;;0.95;0.95;;;18.90;99.90;;;;;;5001062;28;20054;-64
2023/10/02 09:18:29;;;;;;;0.75;0.75;;;18.90;99.90;;;;;;5000609;28;20402;-64
2023/10/02 09:21:13;;;;;;;6.50;3.45;;;19.00;99.90;;;;;;5002131;28;20049;-64
2023/10/02 09:23:49;;;;;;;2.17;1.58;;;19.20;99.90;;;;;;5004179;28;20042;-64
2023/10/02 09:26:23;;;;;;;0.68;0.63;;;19.30;99.90;;;;;;4996435;28;20517;-64
2023/10/02 09:28:59;;;;;;;5.00;1.88;;;19.40;99.90;;;;;;5005757;28;20116;-64
2023/10/02 09:31:34;;;;;;;6.30;0.73;;;19.40;99.90;;;;;;5002883;28;20049;-64
2023/10/02 09:34:10;;;;;;;2.70;1.38;;;19.40;99.90;;;;;;4994838;28;20041;-64
2023/10/02 09:36:47;;;;;;;0.70;0.70;;;19.50;99.90;;;;;;5005840;28;20037;-64
2023/10/02 09:39:32;;;;;;;1.60;1.20;;;19.40;99.90;;;;;;5000275;28;20600;-64
2023/10/02 09:42:11;;;;;;;0.52;0.47;;;19.50;99.90;;;;;;4995128;28;20038;-64
2023/10/02 09:44:46;;;;;;;2.47;1.35;;;19.50;99.90;;;;;;5003475;28;20108;-64
2023/10/02 09:47:21;;;;;;;1.60;1.48;;;19.60;99.90;;;;;;4997162;28;20034;-64
2023/10/02 09:50:10;;;;;;;4.82;2.63;;;19.60;99.90;;;;;;5001971;28;20042;-64
2023/10/02 09:52:57;;;;;;;1.25;0.90;;;19.60;99.90;;;;;;4997153;28;20041;-64
2023/10/02 09:55:40;;;;;;;0.38;0.38;;;19.70;99.90;;;;;;5003332;28;20104;-64
2023/10/02 09:58:26;;;;;;;0.38;0.38;;;19.90;99.90;;;;;;5000312;28;20054;-64
2023/10/02 10:03:54;;;;;;;0.88;0.63;;;20.20;99.90;;;;;;5000357;28;20061;-64
2023/10/02 10:06:27;;;;;;;0.45;0.45;;;20.30;99.90;;;;;;5004864;28;20042;-64
2023/10/02 10:11:43;;;;;;;0.35;0.35;;;20.40;99.90;;;;;;5002082;28;20490;-64
2023/10/02 10:14:37;;;;;;;1.50;1.00;;;20.50;99.90;;;;;;5020843;28;20100;-64
2023/10/02 10:17:03;;;;;;;;;;;20.50;99.90;;;;;;5001892;28;20042;-64
2023/10/02 10:19:32;;;;;;;0.22;0.22;;;20.60;99.90;;;;;;4996426;28;19960;-64
2023/10/02 10:22:00;;;;;;;8.40;1.65;;;20.70;99.90;;;;;;4999507;28;20053;-64
2023/10/02 10:24:55;;;;;;;2.75;2.08;;;20.70;99.90;;;;;;4994753;28;20061;-64
2023/10/02 10:27:39;;;;;;;2.05;1.85;;;20.60;99.90;;;;;;4990615;28;20054;-65
2023/10/02 10:33:33;;;;;;;5.97;2.65;;;20.40;99.90;;;;;;4964543;28;20047;-64
2023/10/02 10:36:02;;;;;;;0.15;0.15;;;20.50;99.90;;;;;;4991562;28;20054;-64
2023/10/02 10:38:39;;;;;;;3.30;0.45;;;20.50;99.90;;;;;;4997661;28;20132;-64
2023/10/02 10:41:09;;;;;;;0.32;0.32;;;20.50;99.90;;;;;;4996589;28;20057;-64
2023/10/02 10:46:17;;;;;;;0.45;0.45;;;20.50;99.90;;;;;;5004433;28;20494;-64
2023/10/02 10:48:48;;;;;;;0.40;0.40;;;20.50;99.90;;;;;;5006661;28;20034;-64
2023/10/02 10:51:20;;;;;;;2.05;1.95;;;20.50;99.90;;;;;;5012902;28;20065;-64
2023/10/02 10:53:52;;;;;;;5.45;1.10;;;20.60;99.90;;;;;;5010705;28;20052;-64
2023/10/02 10:56:19;;;;;;;0.85;0.85;;;20.60;99.90;;;;;;5006995;28;20041;-64
2023/10/02 10:58:47;;;;;;;0.32;0.32;;;20.60;99.90;;;;;;5006380;28;20045;-64
2023/10/02 11:01:16;;;;;;;0.43;0.22;;;20.60;99.90;;;;;;5003166;28;20050;-64
2023/10/02 11:03:49;;;;;;;1.08;0.25;;;20.60;99.90;;;;;;5012673;28;20224;-64
2023/10/02 11:06:16;;;;;;;1.95;1.20;;;20.80;99.90;;;;;;5012086;28;20087;-64
2023/10/02 11:08:44;;;;;;;0.10;0.10;;;21.00;99.90;;;;;;5000924;28;20099;-64
2023/10/02 11:11:18;;;;;;;0.30;0.30;;;21.10;99.90;;;;;;5009026;28;20608;-64
2023/10/02 11:13:57;;;;;;;2.40;1.85;;;21.20;99.90;;;;;;5004026;28;20516;-64
2023/10/02 11:16:37;;;;;;;1.35;0.82;;;21.20;99.90;;;;;;5002051;28;20112;-64
2023/10/02 11:19:21;;;;;;;0.40;0.38;;;21.30;99.90;;;;;;5007533;28;20060;-64
2023/10/02 11:22:14;;;;;;;2.45;0.55;;;21.40;99.90;;;;;;5000013;28;20370;-64
2023/10/02 11:24:55;;;;;;;0.40;0.40;;;21.50;99.90;;;;;;5010969;28;20050;-64
2023/10/02 11:27:22;;;;;;;3.47;2.50;;;21.40;99.90;;;;;;5003915;28;20057;-64
2023/10/02 11:30:02;;;;;;;2.25;1.55;;;21.30;99.90;;;;;;5007709;28;20142;-63
2023/10/02 11:33:07;;;;;;;0.00;0.00;;;21.30;99.90;;;;;;5007682;28;20053;-64
2023/10/02 11:35:41;;;;;;;2.67;2.00;;;21.30;99.90;;;;;;5011677;28;20046;-63
2023/10/02 11:38:10;;;;;;;0.32;0.32;;;21.20;99.90;;;;;;5011227;28;20061;-64
2023/10/02 11:40:36;;;;;;;0.70;0.70;;;21.20;99.90;;;;;;5000600;28;20056;-64
2023/10/02 11:43:02;;;;;;;0.80;0.52;;;21.30;99.90;;;;;;5018441;28;20516;-64
2023/10/02 11:45:29;;;;;;;1.38;1.27;;;21.50;99.90;;;;;;5006970;28;20038;-64
2023/10/02 11:47:55;;;;;;;1.05;1.00;;;21.70;99.90;;;;;;5004719;28;20046;-64
2023/10/02 11:50:21;;;;;;;1.38;0.85;;;21.80;99.90;;;;;;5003032;28;20131;-64
2023/10/02 11:52:47;;;;;;;0.25;0.17;;;21.90;99.90;;;;;;5007449;28;20074;-64
2023/10/02 11:55:17;;;;;;;1.20;0.95;;;21.80;99.90;;;;;;5004178;28;20045;-64
2023/10/02 11:57:51;;;;;;;1.30;0.08;;;21.90;99.90;;;;;;5001111;28;20038;-64
2023/10/02 12:00:20;;;;;;;0.73;0.73;;;22.20;99.90;;;;;;5000234;28;20054;-64
2023/10/02 12:02:46;;;;;;;1.60;1.35;;;22.20;99.90;;;;;;5004239;28;20049;-64
2023/10/02 12:05:12;;;;;;;0.60;0.60;;;22.10;99.90;;;;;;5004197;28;20133;-64
2023/10/02 12:07:39;;;;;;;1.80;1.33;;;21.90;99.90;;;;;;5003499;28;20136;-64
2023/10/02 12:10:06;;;;;;;0.68;0.38;;;21.80;99.90;;;;;;5006736;28;20549;-64
2023/10/02 12:12:31;;;;;;;5.72;1.73;;;21.70;99.90;;;;;;5008358;28;20501;-64
2023/10/02 12:14:57;;;;;;;0.25;0.25;;;21.60;99.90;;;;;;4999883;28;20045;-64
2023/10/02 12:17:23;;;;;;;0.43;0.43;;;21.50;99.90;;;;;;5004509;28;20038;-64
2023/10/02 12:19:50;;;;;;;0.80;0.80;;;21.50;99.90;;;;;;5006331;28;20841;-64
2023/10/02 12:22:15;;;;;;;0.43;0.43;;;21.50;99.90;;;;;;5002961;28;20050;-64
2023/10/02 12:24:41;;;;;;;2.13;1.27;;;21.60;99.90;;;;;;4999331;28;20046;-64
2023/10/02 12:27:10;;;;;;;2.47;1.92;;;21.50;99.90;;;;;;4996196;28;20390;-64
2023/10/02 12:29:36;;;;;;;0.30;0.30;;;21.40;99.90;;;;;;4999751;28;20054;-63
2023/10/02 12:32:03;;;;;;;1.23;1.17;;;21.40;99.90;;;;;;5001908;28;20042;-64
2023/10/02 12:34:29;;;;;;;20.92;1.50;;;21.40;99.90;;;;;;5004785;28;20045;-64
2023/10/02 12:36:55;;;;;;;1.63;1.45;;;21.30;99.90;;;;;;5007255;28;20417;-64
2023/10/02 12:39:22;;;;;;;1.20;1.05;;;21.30;99.90;;;;;;5007412;28;20042;-64
2023/10/02 12:41:48;;;;;;;0.70;0.65;;;21.20;99.90;;;;;;4999800;28;20092;-63
2023/10/02 12:44:14;;;;;;;0.82;0.35;;;21.20;99.90;;;;;;5000297;28;20755;-64
2023/10/02 12:46:43;;;;;;;4.97;2.08;;;21.20;99.90;;;;;;4992735;28;20148;-63
2023/10/02 12:49:09;;;;;;;4.20;0.57;;;21.20;99.90;;;;;;5002879;28;20042;-64
2023/10/02 12:51:35;;;;;;;0.40;0.40;;;21.30;99.90;;;;;;5003021;28;20077;-64
2023/10/02 12:54:01;;;;;;;0.52;0.52;;;21.30;99.90;;;;;;5007416;28;20136;-64
2023/10/02 12:56:26;;;;;;;0.20;0.20;;;21.50;99.90;;;;;;5008510;28;20528;-63
2023/10/02 12:58:54;;;;;;;0.68;0.68;;;21.70;99.90;;;;;;5000826;28;20049;-63
2023/10/02 13:01:27;;;;;;;0.40;0.40;;;21.70;99.90;;;;;;5006691;28;20042;-64
2023/10/02 13:03:54;;;;;;;1.38;1.27;;;21.50;99.90;;;;;;5000365;28;20049;-64
2023/10/02 13:06:22;;;;;;;0.25;0.25;;;21.50;99.90;;;;;;5003994;28;20136;-63
2023/10/02 13:08:49;;;;;;;4.82;1.45;;;21.40;99.90;;;;;;5006328;28;20061;-63
2023/10/02 13:11:19;;;;;;;0.90;0.90;;;21.30;99.90;;;;;;5004543;28;20054;-63
2023/10/02 13:13:46;;;;;;;7.90;1.55;;;21.40;99.90;;;;;;5003213;28;20041;-64
2023/10/02 13:16:19;;;;;;;1.67;1.58;;;21.50;99.90;;;;;;5005057;28;20080;-64
2023/10/02 13:18:45;;;;;;;0.47;0.47;;;21.50;99.90;;;;;;5002711;28;20058;-64
2023/10/02 13:21:20;;;;;;;0.52;0.52;;;21.50;99.90;;;;;;5006976;28;20030;-64
2023/10/02 13:23:47;;;;;;;1.65;1.52;;;21.70;99.90;;;;;;5000019;28;20045;-64
2023/10/02 13:26:16;;;;;;;6.47;2.85;;;21.80;99.90;;;;;;5004990;28;20030;-64
2023/10/02 13:28:48;;;;;;;5.93;1.40;;;21.80;99.90;;;;;;5008037;28;20065;-64
2023/10/02 13:31:16;;;;;;;0.45;0.45;;;21.80;99.90;;;;;;5007214;28;20038;-63
2023/10/02 13:33:52;;;;;;;0.35;0.35;;;21.80;99.90;;;;;;4997507;28;20042;-63
2023/10/02 13:36:22;;;;;;;0.75;0.63;;;21.80;99.90;;;;;;5001064;28;20180;-64
2023/10/02 13:38:56;;;;;;;0.40;0.38;;;21.80;99.90;;;;;;5010133;28;20042;-63
2023/10/02 13:41:22;;;;;;;0.98;0.98;;;21.70;99.90;;;;;;5007242;28;20045;-63
2023/10/02 13:43:52;;;;;;;1.05;0.63;;;21.80;99.90;;;;;;4999694;28;20509;-64
2023/10/02 13:46:20;;;;;;;0.43;0.43;;;21.70;99.90;;;;;;5007465;28;20054;-64
2023/10/02 13:48:47;;;;;;;0.75;0.73;;;21.60;99.90;;;;;;5000971;28;20039;-64
2023/10/02 13:51:16;;;;;;;0.60;0.60;;;21.50;99.90;;;;;;4999292;28;20493;-64
2023/10/02 13:53:42;;;;;;;0.93;0.80;;;21.50;99.90;;;;;;5006848;28;20065;-64
2023/10/02 13:56:20;;;;;;;1.55;0.98;;;21.50;99.90;;;;;;5004483;28;20113;-63
2023/10/02 13:58:50;;;;;;;1.05;0.63;;;21.40;99.90;;;;;;5000530;28;20554;-64
2023/10/02 14:01:26;;;;;;;0.30;0.30;;;21.40;99.90;;;;;;4992958;28;20042;-64
2023/10/02 14:03:53;;;;;;;0.50;0.50;;;21.40;99.90;;;;;;4998627;28;20046;-63
2023/10/02 14:06:23;;;;;;;5.82;1.88;;;21.40;99.90;;;;;;5005241;28;20038;-64
2023/10/02 14:08:49;;;;;;;0.30;0.30;;;21.50;99.90;;;;;;5006748;28;20124;-64